Startpagina
METAR-TAF:

METAR-TAF

Vliegvelden :

Flughafen Frankfurt-Hahn

Hahn, Duitsland

breedte: 49-57N, lengte: 007-16E, hoogte: 491 m

Actueel weer

Dit bericht is 15 minuten geleden gemaakt, om 23:20 UTC
Wind 16 kt uit het zuidoosten
Temperatuur 4°C
Vochtigheid 100%
Druk 1026 hPa
Zicht: 0200 m
mist

METAR: EDFH 142320Z 14016KT 0200 R21/0375V0500N FG VV/// 04/04 Q1026

Tijdstip: 00:35 (23:35 UTC)

Verwachting

Dit bericht is 35 minuten geleden gemaakt, om 23:00 UTC
Verwachting geldig van 15 om 00 UTC tot 15 om 24 UTC
Wind 12 kt uit het zuidoosten
Zicht: 0100 m
Geheel bewolkt op 100 ft
mist
Tijdelijke
van 15 om 11 UTC tot 15 om 17 UTC
Zicht: 6000 m
Verspreide wolken op 100 ft

TAF: EDFH 142300Z 1500/1524 14012KT 0100 FG OVC001 TEMPO 1511/1517 6000 SCT001

Waarnemingen en weersverwachtingen van meer dan 4000 vliegvelden (METAR en TAF).

De beschikbare stations zijn de gele en rode punten op de kaart.

Ga met uw muis naar het station om de naam te zien.

Klik dan om waarnemingen en weersverwachtingen te zien.

kaart wijzigen: klik op de groene knoppen met een zwart kruis om in te zoomen, op de groene knop met een streepje om uit te zoomen of op de groene pijlen voor aangrenzende kaarten.


METAR-TAF: